Terminal Aerodrome Forecast
Issued by NWS

Home | Current Version | Previous Version | Text Only | Print | Product List | Glossary On
Versions: 1 2 3 4 5 6 7 8 9 10 11 12 13 14 15 16 17 18 19 20 21 22
267
FTUS43 KAPX 282334
TAFTVC
TAF
KTVC 282334Z 2900/2924 21010G18KT P6SM BKN150
     FM290200 19006KT P6SM SCT250
     FM290400 19005KT P6SM SCT250 WS015/19035KT
     FM291100 20004KT P6SM BKN110
     FM291600 21010KT P6SM BKN060
     FM291800 22014G22KT P6SM VCSH BKN050=

USA.gov is the U.S. government's official web portal to all federal, state and local government web resources and services.